createdAt,value
2019-03-17T00:00:17.011Z,14.07
2019-03-17T00:02:45.444Z,10.45
2019-03-17T00:05:14.048Z,13.15
2019-03-17T00:07:42.490Z,9.65
2019-03-17T00:10:11.025Z,13.18
2019-03-17T00:12:39.453Z,9.25
2019-03-17T00:15:08.160Z,12.98
2019-03-17T00:17:36.601Z,12.47
2019-03-17T00:20:06.366Z,8.05
2019-03-17T00:22:34.811Z,9.33
2019-03-17T00:25:08.975Z,8.78
2019-03-17T00:27:33.572Z,10.35
2019-03-17T00:30:01.971Z,9.25
2019-03-17T00:32:30.427Z,9.70
2019-03-17T00:34:58.835Z,9.50
2019-03-17T00:37:27.372Z,9.85
2019-03-17T00:39:55.805Z,6.90
2019-03-17T00:42:24.278Z,8.30
2019-03-17T00:44:52.668Z,6.75
2019-03-17T00:47:21.139Z,8.28
2019-03-17T00:49:49.542Z,7.47
2019-03-17T00:52:18.011Z,8.75
2019-03-17T00:54:46.412Z,7.95
2019-03-17T00:57:14.873Z,10.30
2019-03-17T00:59:43.274Z,10.23
2019-03-17T01:02:11.740Z,11.85
2019-03-17T01:04:40.201Z,12.33
2019-03-17T01:07:08.672Z,11.18
2019-03-17T01:09:37.116Z,11.78
2019-03-17T01:12:05.509Z,9.65
2019-03-17T01:14:33.985Z,10.75
2019-03-17T01:17:02.381Z,12.45
2019-03-17T01:19:30.839Z,8.93
2019-03-17T01:21:59.245Z,8.13
2019-03-17T01:24:27.695Z,9.33
2019-03-17T01:26:56.101Z,8.75
2019-03-17T01:29:24.559Z,6.90
2019-03-17T01:31:52.961Z,7.28
2019-03-17T01:34:21.424Z,10.35
2019-03-17T01:36:49.845Z,18.35
2019-03-17T01:39:18.300Z,18.52
2019-03-17T01:41:46.709Z,13.40
2019-03-17T01:44:15.162Z,11.85
2019-03-17T01:46:43.569Z,13.58
2019-03-17T01:49:12.034Z,12.98
2019-03-17T01:51:40.435Z,8.93
2019-03-17T01:54:08.902Z,9.55
2019-03-17T01:56:37.361Z,7.92
2019-03-17T01:59:05.758Z,6.97
2019-03-17T02:01:34.186Z,9.10
2019-03-17T02:04:02.754Z,7.20
2019-03-17T02:06:31.202Z,7.28
2019-03-17T02:08:59.612Z,8.50
2019-03-17T02:11:28.069Z,8.88
2019-03-17T02:13:56.449Z,7.33
2019-03-17T02:16:24.906Z,6.72
2019-03-17T02:18:53.332Z,8.78
2019-03-17T02:21:21.764Z,8.10
2019-03-17T02:23:50.169Z,8.43
2019-03-17T02:26:18.627Z,10.35
2019-03-17T02:28:47.039Z,9.95
2019-03-17T02:31:15.479Z,11.45
2019-03-17T02:33:43.877Z,11.28
2019-03-17T02:36:12.341Z,8.38
2019-03-17T02:38:40.758Z,12.05
2019-03-17T02:41:09.180Z,10.23
2019-03-17T02:43:37.617Z,10.70
2019-03-17T02:46:06.123Z,8.43
2019-03-17T02:48:34.548Z,7.28
2019-03-17T02:51:03.003Z,10.90
2019-03-17T02:53:31.451Z,7.20
2019-03-17T02:55:59.939Z,7.53
2019-03-17T02:58:28.420Z,7.78
2019-03-17T03:00:56.859Z,8.90
2019-03-17T03:03:25.326Z,8.20
2019-03-17T03:05:55.512Z,7.78
2019-03-17T03:08:24.043Z,7.35
2019-03-17T03:10:52.508Z,8.10
2019-03-17T03:13:20.969Z,8.98
2019-03-17T03:15:49.364Z,8.85
2019-03-17T03:18:17.820Z,9.75
2019-03-17T03:20:46.206Z,7.12
2019-03-17T03:23:14.679Z,10.40
2019-03-17T03:25:43.177Z,8.53
2019-03-17T03:28:11.693Z,11.33
2019-03-17T03:30:40.159Z,9.53
2019-03-17T03:33:08.620Z,8.15
2019-03-17T03:35:37.078Z,6.65
2019-03-17T03:38:05.471Z,7.85
2019-03-17T03:40:33.920Z,7.97
2019-03-17T03:43:02.447Z,7.05
2019-03-17T03:45:30.889Z,7.10
2019-03-17T03:47:59.299Z,7.80
2019-03-17T03:50:27.746Z,9.03
2019-03-17T03:52:56.133Z,7.75
2019-03-17T03:55:24.581Z,6.45
2019-03-17T03:57:52.967Z,6.87
2019-03-17T04:00:21.416Z,5.75
2019-03-17T04:02:49.791Z,6.97
2019-03-17T04:05:18.328Z,9.85
2019-03-17T04:07:46.785Z,6.20
2019-03-17T04:10:15.260Z,6.10
2019-03-17T04:12:43.657Z,6.58
2019-03-17T04:15:12.650Z,6.42
2019-03-17T04:17:41.080Z,6.37
2019-03-17T04:20:11.104Z,6.72
2019-03-17T04:22:39.501Z,8.53
2019-03-17T04:25:08.026Z,5.97
2019-03-17T04:27:36.480Z,8.25
2019-03-17T04:30:08.052Z,9.28
2019-03-17T04:32:36.514Z,7.17
2019-03-17T04:35:06.650Z,5.95
2019-03-17T04:37:35.049Z,7.28
2019-03-17T04:40:04.143Z,8.85
2019-03-17T04:42:32.604Z,7.27
2019-03-17T04:45:01.003Z,6.55
2019-03-17T04:47:29.449Z,5.12
2019-03-17T04:49:57.855Z,5.72
2019-03-17T04:52:26.296Z,6.95
2019-03-17T04:54:54.683Z,5.87
2019-03-17T04:57:23.143Z,8.33
2019-03-17T04:59:51.542Z,7.33
2019-03-17T05:02:20.009Z,6.17
2019-03-17T05:04:48.407Z,9.53
2019-03-17T05:07:16.912Z,6.92
2019-03-17T05:09:45.313Z,7.30
2019-03-17T05:12:13.853Z,12.40
2019-03-17T05:14:42.268Z,10.48
2019-03-17T05:17:10.714Z,8.95
2019-03-17T05:19:39.146Z,8.68
2019-03-17T05:22:07.618Z,5.20
2019-03-17T05:24:36.021Z,8.25
2019-03-17T05:27:04.414Z,7.15
2019-03-17T05:29:32.870Z,5.53
2019-03-17T05:32:01.264Z,7.22
2019-03-17T05:34:29.717Z,7.47
2019-03-17T05:37:05.956Z,5.70
2019-03-17T05:39:28.302Z,3.52
2019-03-17T05:41:56.714Z,4.67
2019-03-17T05:44:25.154Z,5.72
2019-03-17T05:46:53.551Z,6.08
2019-03-17T05:49:21.984Z,6.47
2019-03-17T05:51:50.379Z,6.47
2019-03-17T05:54:18.938Z,8.85
2019-03-17T05:56:47.332Z,8.35
2019-03-17T05:59:15.782Z,8.15
2019-03-17T06:01:44.250Z,7.17
2019-03-17T06:04:12.717Z,6.50
2019-03-17T06:06:41.133Z,6.03
2019-03-17T06:09:09.580Z,6.70
2019-03-17T06:11:37.977Z,6.22
2019-03-17T06:14:06.373Z,6.28
2019-03-17T06:16:34.827Z,10.23
2019-03-17T06:19:03.288Z,6.08
2019-03-17T06:21:31.680Z,7.28
2019-03-17T06:24:00.146Z,5.65
2019-03-17T06:26:28.583Z,4.83
2019-03-17T06:28:56.969Z,3.95
2019-03-17T06:31:25.426Z,2.83
2019-03-17T06:33:53.830Z,2.08
2019-03-17T06:36:22.289Z,2.40
2019-03-17T06:38:50.695Z,2.58
2019-03-17T06:41:19.152Z,2.70
2019-03-17T06:43:47.540Z,2.72
2019-03-17T06:46:15.991Z,2.67
2019-03-17T06:48:44.387Z,2.55
2019-03-17T06:51:12.829Z,1.60
2019-03-17T06:53:41.237Z,3.05
2019-03-17T06:56:09.689Z,2.60
2019-03-17T06:58:38.105Z,2.22
2019-03-17T07:01:06.543Z,2.98
2019-03-17T07:03:34.953Z,3.12
2019-03-17T07:06:03.336Z,2.17
2019-03-17T07:08:31.811Z,2.77
2019-03-17T07:11:00.205Z,1.70
2019-03-17T07:13:28.665Z,2.60
2019-03-17T07:15:57.061Z,2.05
2019-03-17T07:18:25.525Z,1.80
2019-03-17T07:20:53.907Z,2.95
2019-03-17T07:23:22.362Z,1.80
2019-03-17T07:25:50.796Z,1.90
2019-03-17T07:28:19.280Z,2.30
2019-03-17T07:30:47.674Z,1.30
2019-03-17T07:33:16.114Z,1.77
2019-03-17T07:35:46.356Z,1.77
2019-03-17T07:38:14.703Z,1.42
2019-03-17T07:40:43.082Z,1.75
2019-03-17T07:43:11.529Z,4.03
2019-03-17T07:45:39.933Z,2.87
2019-03-17T07:48:08.396Z,2.08
2019-03-17T07:50:36.794Z,3.50
2019-03-17T07:53:05.263Z,1.82
2019-03-17T07:55:33.657Z,1.70
2019-03-17T07:58:02.125Z,2.85
2019-03-17T08:00:32.124Z,1.90
2019-03-17T08:03:00.849Z,2.35
2019-03-17T08:05:29.345Z,2.37
2019-03-17T08:08:08.789Z,3.83
2019-03-17T08:10:27.913Z,2.00
2019-03-17T08:12:56.326Z,4.12
2019-03-17T08:15:24.774Z,6.83
2019-03-17T08:17:53.181Z,7.75
2019-03-17T08:20:21.658Z,4.80
2019-03-17T08:22:50.145Z,4.90
2019-03-17T08:25:18.605Z,2.80
2019-03-17T08:27:47.006Z,4.05
2019-03-17T08:30:16.507Z,3.45
2019-03-17T08:32:44.913Z,3.85
2019-03-17T08:35:13.390Z,2.52
2019-03-17T08:37:41.776Z,2.47
2019-03-17T08:40:14.843Z,3.50
2019-03-17T08:42:43.312Z,3.20
2019-03-17T08:45:13.114Z,3.30
2019-03-17T08:47:41.537Z,3.12
2019-03-17T08:50:14.074Z,4.15
2019-03-17T08:52:42.529Z,3.98
2019-03-17T08:55:11.855Z,5.12
2019-03-17T08:57:40.320Z,4.47
2019-03-17T09:00:14.331Z,2.72
2019-03-17T09:02:42.737Z,4.45
2019-03-17T09:05:11.190Z,4.05
2019-03-17T09:07:39.636Z,2.75
2019-03-17T09:10:12.924Z,3.05
2019-03-17T09:12:41.378Z,3.80
2019-03-17T09:15:10.015Z,3.52
2019-03-17T09:17:38.491Z,5.10
2019-03-17T09:20:10.203Z,7.60
2019-03-17T09:22:38.710Z,5.15
2019-03-17T09:25:09.577Z,7.58
2019-03-17T09:27:38.036Z,6.90
2019-03-17T09:30:15.625Z,7.70
2019-03-17T09:32:44.085Z,4.35
2019-03-17T09:35:12.495Z,10.53
2019-03-17T09:37:41.125Z,6.28
2019-03-17T09:40:14.158Z,7.95
2019-03-17T09:42:42.696Z,9.15
2019-03-17T09:45:12.603Z,14.53
2019-03-17T09:47:41.572Z,11.43
2019-03-17T09:50:17.366Z,7.70
2019-03-17T09:52:45.822Z,9.73
2019-03-17T09:55:14.225Z,10.55
2019-03-17T09:57:42.713Z,12.30
2019-03-17T10:00:15.821Z,11.00
2019-03-17T10:02:44.273Z,16.95
2019-03-17T10:05:12.811Z,12.98
2019-03-17T10:07:41.200Z,9.43
2019-03-17T10:10:17.222Z,12.13
2019-03-17T10:12:45.747Z,12.28
2019-03-17T10:15:15.464Z,10.05
2019-03-17T10:17:43.934Z,8.55
2019-03-17T10:20:14.747Z,12.82
2019-03-17T10:22:43.224Z,13.20
2019-03-17T10:25:12.522Z,8.28
2019-03-17T10:27:40.993Z,6.60
2019-03-17T10:30:20.585Z,8.45
2019-03-17T10:32:49.075Z,12.95
2019-03-17T10:35:17.534Z,8.63
2019-03-17T10:37:45.935Z,13.68
2019-03-17T10:40:16.509Z,14.58
2019-03-17T10:42:44.956Z,10.55
2019-03-17T10:45:14.567Z,10.78
2019-03-17T10:47:43.041Z,11.45
2019-03-17T10:50:18.373Z,13.58
2019-03-17T10:52:46.842Z,17.85
2019-03-17T10:55:15.336Z,9.33
2019-03-17T10:57:43.738Z,13.88
2019-03-17T11:00:17.276Z,8.53
2019-03-17T11:02:45.677Z,11.55
2019-03-17T11:05:14.250Z,10.32
2019-03-17T11:07:42.852Z,12.00
2019-03-17T11:10:13.068Z,13.08
2019-03-17T11:12:41.488Z,15.70
2019-03-17T11:15:12.995Z,7.30
2019-03-17T11:17:41.483Z,16.57
2019-03-17T11:20:12.337Z,6.65
2019-03-17T11:22:40.780Z,9.28
2019-03-17T11:25:10.833Z,4.75
2019-03-17T11:27:39.295Z,9.98
2019-03-17T11:30:15.275Z,7.33
2019-03-17T11:32:43.751Z,8.35
2019-03-17T11:35:12.230Z,12.23
2019-03-17T11:37:40.695Z,7.72
2019-03-17T11:40:16.028Z,7.20
2019-03-17T11:42:44.620Z,8.40
2019-03-17T11:45:19.160Z,9.50
2019-03-17T11:47:47.779Z,5.80
2019-03-17T11:50:17.576Z,7.37
2019-03-17T11:52:46.103Z,6.15
2019-03-17T11:55:14.845Z,7.58
2019-03-17T11:57:43.652Z,7.22
2019-03-17T12:00:15.191Z,6.30
2019-03-17T12:02:43.652Z,4.08
2019-03-17T12:05:12.198Z,7.33
2019-03-17T12:07:40.716Z,9.13
2019-03-17T12:10:17.042Z,6.70
2019-03-17T12:12:45.519Z,11.43
2019-03-17T12:15:22.358Z,3.70
2019-03-17T12:17:50.892Z,6.58
2019-03-17T12:20:19.356Z,8.18
2019-03-17T12:22:47.826Z,8.78
2019-03-17T12:25:17.451Z,5.55
2019-03-17T12:27:45.925Z,10.45
2019-03-17T12:30:25.279Z,8.93
2019-03-17T12:32:54.509Z,5.60
2019-03-17T12:35:23.446Z,2.52
2019-03-17T12:37:51.988Z,3.50
2019-03-17T12:40:20.715Z,3.92
2019-03-17T12:42:49.111Z,3.10
2019-03-17T12:45:17.738Z,4.22
2019-03-17T12:47:46.141Z,1.55
2019-03-17T12:50:19.726Z,1.45
2019-03-17T12:52:48.118Z,1.67
2019-03-17T12:55:16.605Z,1.98
2019-03-17T12:57:44.996Z,1.70
2019-03-17T13:00:16.522Z,3.20
2019-03-17T13:02:44.915Z,2.00
2019-03-17T13:05:14.045Z,2.58
2019-03-17T13:07:42.647Z,1.60
2019-03-17T13:10:16.102Z,2.27
2019-03-17T13:12:43.209Z,4.22
2019-03-17T13:15:37.356Z,1.82
2019-03-17T13:18:05.791Z,2.10
2019-03-17T13:20:34.273Z,0.98
2019-03-17T13:23:02.688Z,1.12
2019-03-17T13:25:45.978Z,2.58
2019-03-17T13:28:14.444Z,1.60
2019-03-17T13:30:42.898Z,3.17
2019-03-17T13:33:11.359Z,0.42
2019-03-17T13:35:39.891Z,0.23
2019-03-17T13:38:08.350Z,1.52
2019-03-17T13:43:17.822Z,0.62
2019-03-17T13:45:46.262Z,2.25
2019-03-17T13:48:14.720Z,2.45
2019-03-17T13:50:44.645Z,4.67
2019-03-17T13:53:13.103Z,4.72
2019-03-17T13:55:42.734Z,3.52
2019-03-17T13:58:23.255Z,1.85
2019-03-17T14:00:51.404Z,1.62
2019-03-17T14:03:19.920Z,2.60
2019-03-17T14:05:48.355Z,2.20
2019-03-17T14:08:16.809Z,2.40
2019-03-17T14:10:45.212Z,1.30
2019-03-17T14:13:13.671Z,0.60
2019-03-17T14:15:42.509Z,0.72
2019-03-17T14:18:24.399Z,1.05
2019-03-17T14:21:04.512Z,2.52
2019-03-17T14:23:44.578Z,2.70
2019-03-17T14:26:14.724Z,0.93
2019-03-17T14:28:43.323Z,3.37
2019-03-17T14:31:11.749Z,1.85
2019-03-17T14:33:40.359Z,2.22
2019-03-17T14:36:08.993Z,1.40
2019-03-17T14:38:37.456Z,1.37
2019-03-17T14:41:05.928Z,2.47
2019-03-17T14:43:34.395Z,2.22
2019-03-17T14:46:03.084Z,1.80
2019-03-17T14:48:31.594Z,3.15
2019-03-17T14:51:00.064Z,2.12
2019-03-17T14:53:28.504Z,1.82
2019-03-17T14:55:56.937Z,1.70
2019-03-17T14:58:25.388Z,1.17
2019-03-17T15:00:53.852Z,0.90
2019-03-17T15:03:22.377Z,1.60
2019-03-17T15:05:51.040Z,2.60
2019-03-17T15:08:19.517Z,0.82
2019-03-17T15:10:48.079Z,2.05
2019-03-17T15:13:18.782Z,2.08
2019-03-17T15:15:47.359Z,2.62
2019-03-17T15:18:15.758Z,3.77
2019-03-17T15:20:44.246Z,1.30
2019-03-17T15:23:13.461Z,1.17
2019-03-17T15:25:41.967Z,1.12
2019-03-17T15:28:10.352Z,1.20
2019-03-17T15:30:38.819Z,3.17
2019-03-17T15:33:07.219Z,1.37
2019-03-17T15:35:35.657Z,1.50
2019-03-17T15:38:04.211Z,3.10
2019-03-17T15:40:32.688Z,2.30
2019-03-17T15:43:01.076Z,1.57
2019-03-17T15:45:29.496Z,1.62
2019-03-17T15:47:57.939Z,3.20
2019-03-17T15:50:27.694Z,2.05
2019-03-17T15:52:56.214Z,3.12
2019-03-17T15:55:24.711Z,1.65
2019-03-17T15:57:53.178Z,2.00
2019-03-17T16:00:26.812Z,2.65
2019-03-17T16:02:52.707Z,3.08
2019-03-17T16:05:21.386Z,1.87
2019-03-17T16:07:49.933Z,1.90
2019-03-17T16:10:20.672Z,2.42
2019-03-17T16:12:49.392Z,1.82
2019-03-17T16:15:17.884Z,2.47
2019-03-17T16:17:46.761Z,3.77
2019-03-17T16:20:25.240Z,1.57
2019-03-17T16:22:53.755Z,2.55
2019-03-17T16:25:36.523Z,3.58
2019-03-17T16:28:05.114Z,3.30
2019-03-17T16:30:33.951Z,2.50
2019-03-17T16:33:02.551Z,2.70
2019-03-17T16:35:30.976Z,2.27
2019-03-17T16:37:59.566Z,3.30
2019-03-17T16:40:35.598Z,5.03
2019-03-17T16:43:07.278Z,2.85
2019-03-17T16:45:35.646Z,2.70
2019-03-17T16:48:04.299Z,2.90
2019-03-17T16:50:32.717Z,1.98
2019-03-17T16:53:01.219Z,3.47
2019-03-17T16:55:29.623Z,1.90
2019-03-17T16:57:58.008Z,2.98
2019-03-17T17:00:26.737Z,2.55
2019-03-17T17:02:55.199Z,2.30
2019-03-17T17:05:24.726Z,1.57
2019-03-17T17:07:53.110Z,0.93
2019-03-17T17:10:25.866Z,1.40
2019-03-17T17:15:27.199Z,2.12
2019-03-17T17:17:55.662Z,2.65
2019-03-17T17:20:35.086Z,2.67
2019-03-17T17:23:03.562Z,4.60
2019-03-17T17:25:32.011Z,1.87
2019-03-17T17:28:02.381Z,1.75
2019-03-17T17:30:30.877Z,2.17
2019-03-17T17:32:59.272Z,2.15
2019-03-17T17:35:27.722Z,1.40
2019-03-17T17:37:56.120Z,3.30
2019-03-17T17:40:26.678Z,1.92
2019-03-17T17:42:55.074Z,4.00
2019-03-17T17:45:24.456Z,3.17
2019-03-17T17:47:52.875Z,3.00
2019-03-17T17:50:22.444Z,3.62
2019-03-17T17:52:50.891Z,1.35
2019-03-17T17:55:19.347Z,2.72
2019-03-17T17:57:47.827Z,2.70
2019-03-17T18:00:22.626Z,2.35
2019-03-17T18:02:51.087Z,2.67
2019-03-17T18:05:19.549Z,3.33
2019-03-17T18:07:47.994Z,2.25
2019-03-17T18:10:18.401Z,4.00
2019-03-17T18:12:46.858Z,2.10
2019-03-17T18:15:23.055Z,2.35
2019-03-17T18:17:51.519Z,6.47
2019-03-17T18:20:19.918Z,4.90
2019-03-17T18:22:48.522Z,6.15
2019-03-17T18:25:18.152Z,4.35
2019-03-17T18:27:46.861Z,3.45
2019-03-17T18:30:20.259Z,5.75
2019-03-17T18:32:48.781Z,2.02
2019-03-17T18:35:17.236Z,2.37
2019-03-17T18:37:45.815Z,4.58
2019-03-17T18:40:16.440Z,4.95
2019-03-17T18:42:45.258Z,4.53
2019-03-17T18:45:19.026Z,4.92
2019-03-17T18:47:47.891Z,3.87
2019-03-17T18:50:20.413Z,5.90
2019-03-17T18:52:46.810Z,5.05
2019-03-17T18:55:15.930Z,4.25
2019-03-17T18:57:44.477Z,4.42
2019-03-17T19:00:16.157Z,3.75
2019-03-17T19:02:45.028Z,4.97
2019-03-17T19:05:14.606Z,5.67
2019-03-17T19:07:43.154Z,3.10
2019-03-17T19:10:19.376Z,3.25
2019-03-17T19:12:47.893Z,3.70
2019-03-17T19:15:22.595Z,3.70
2019-03-17T19:17:50.991Z,4.40
2019-03-17T19:20:20.746Z,2.40
2019-03-17T19:22:49.211Z,4.90
2019-03-17T19:25:25.928Z,4.08
2019-03-17T19:27:54.368Z,4.37
2019-03-17T19:30:23.473Z,4.08
2019-03-17T19:32:51.973Z,2.40
2019-03-17T19:35:20.531Z,7.75
2019-03-17T19:37:49.146Z,5.40
2019-03-17T19:40:24.357Z,4.97
2019-03-17T19:42:59.065Z,4.17
2019-03-17T19:45:23.056Z,3.83
2019-03-17T19:47:51.447Z,5.08
2019-03-17T19:50:21.819Z,3.58
2019-03-17T19:52:50.364Z,2.45
2019-03-17T19:55:19.160Z,2.37
2019-03-17T19:57:47.561Z,2.08
2019-03-17T20:00:17.007Z,2.50
2019-03-17T20:02:47.478Z,3.37
2019-03-17T20:05:15.803Z,3.85
2019-03-17T20:07:44.265Z,2.10
2019-03-17T20:10:24.601Z,2.35
2019-03-17T20:12:53.076Z,2.12
2019-03-17T20:15:21.480Z,4.65
2019-03-17T20:17:49.937Z,2.15
2019-03-17T20:20:18.407Z,2.62
2019-03-17T20:22:46.860Z,3.00
2019-03-17T20:25:15.262Z,1.95
2019-03-17T20:27:43.717Z,2.27
2019-03-17T20:30:14.305Z,2.33
2019-03-17T20:32:42.759Z,1.67
2019-03-17T20:35:12.300Z,1.90
2019-03-17T20:37:40.753Z,1.75
2019-03-17T20:40:15.961Z,3.22
2019-03-17T20:42:44.427Z,3.00
2019-03-17T20:45:13.885Z,3.27
2019-03-17T20:47:42.479Z,1.60
2019-03-17T20:50:12.518Z,3.15
2019-03-17T20:52:40.911Z,2.08
2019-03-17T20:55:12.622Z,0.98
2019-03-17T20:57:41.091Z,2.17
2019-03-17T21:00:17.144Z,2.55
2019-03-17T21:02:45.605Z,2.95
2019-03-17T21:05:14.225Z,2.77
2019-03-17T21:07:42.931Z,3.25
2019-03-17T21:10:17.492Z,2.40
2019-03-17T21:12:45.898Z,2.02
2019-03-17T21:15:18.766Z,2.47
2019-03-17T21:20:16.302Z,5.40
2019-03-17T21:22:44.877Z,1.75
2019-03-17T21:25:13.509Z,2.20
2019-03-17T21:27:41.899Z,2.25
2019-03-17T21:30:21.221Z,2.92
2019-03-17T21:32:49.639Z,6.20
2019-03-17T21:35:18.112Z,1.55
2019-03-17T21:37:46.499Z,2.35
2019-03-17T21:40:14.948Z,1.77
2019-03-17T21:42:43.336Z,5.03
2019-03-17T21:45:12.634Z,3.33
2019-03-17T21:47:41.029Z,1.70
2019-03-17T21:50:14.364Z,3.00
2019-03-17T21:52:42.822Z,2.95
2019-03-17T21:55:12.056Z,3.08
2019-03-17T21:57:40.583Z,6.17
2019-03-17T22:00:17.940Z,1.85
2019-03-17T22:02:46.413Z,1.98
2019-03-17T22:05:15.146Z,1.50
2019-03-17T22:07:50.029Z,3.22
2019-03-17T22:10:16.207Z,5.42
2019-03-17T22:12:44.654Z,2.45
2019-03-17T22:15:15.083Z,1.90
2019-03-17T22:17:43.612Z,1.85
2019-03-17T22:20:14.216Z,2.08
2019-03-17T22:22:42.721Z,4.55
2019-03-17T22:25:17.283Z,2.37
2019-03-17T22:27:45.841Z,2.33
2019-03-17T22:30:18.157Z,2.83
2019-03-17T22:32:46.602Z,2.35
2019-03-17T22:35:15.008Z,1.27
2019-03-17T22:37:43.449Z,2.02
2019-03-17T22:40:18.347Z,3.47
2019-03-17T22:42:46.948Z,2.27
2019-03-17T22:45:16.173Z,3.00
2019-03-17T22:47:44.713Z,2.22
2019-03-17T22:50:19.563Z,2.42
2019-03-17T22:52:48.014Z,4.30
2019-03-17T22:55:16.945Z,3.37
2019-03-17T22:57:45.383Z,3.27
2019-03-17T23:00:21.868Z,2.83
2019-03-17T23:02:50.327Z,3.80
2019-03-17T23:05:18.729Z,5.92
2019-03-17T23:07:47.185Z,2.62
2019-03-17T23:10:15.580Z,3.85
2019-03-17T23:12:44.040Z,1.60
2019-03-17T23:15:13.067Z,1.70
2019-03-17T23:17:41.593Z,2.90
2019-03-17T23:20:11.894Z,1.95
2019-03-17T23:22:40.353Z,2.27
2019-03-17T23:25:10.058Z,6.53
2019-03-17T23:27:38.454Z,1.90
2019-03-17T23:30:15.062Z,1.10
2019-03-17T23:32:43.464Z,2.75
2019-03-17T23:35:11.962Z,2.72
2019-03-17T23:37:40.350Z,1.92
2019-03-17T23:40:10.945Z,4.58
2019-03-17T23:42:39.340Z,2.87
2019-03-17T23:45:10.682Z,1.80
2019-03-17T23:47:39.072Z,2.87
2019-03-17T23:50:12.414Z,6.08
2019-03-17T23:52:40.878Z,1.75
2019-03-17T23:55:13.170Z,0.85
2019-03-17T23:57:41.624Z,1.52
